Time;durP1;ratioP1;P1;durP2;ratioP2;P2;SDS_P1;SDS_P2;PMS_P1;PMS_P2;Temp;Humidity;BMP_temperature;BMP_pressure;BME280_temperature;BME280_humidity;BME280_pressure;Samples;Min_cycle;Max_cycle;Signal;HPM_P1;HPM_P2
2021/04/17 00:00:20;;;;;;;12.07;4.40;;;11.80;72.70;;;;;;5089568;28;21040;-75
2021/04/17 00:02:46;;;;;;;13.02;4.38;;;11.80;72.60;;;;;;5074763;28;20933;-75
2021/04/17 00:05:13;;;;;;;12.90;4.22;;;11.80;73.50;;;;;;5077507;28;20440;-75
2021/04/17 00:07:40;;;;;;;11.18;4.03;;;11.80;72.90;;;;;;5097521;28;20413;-76
2021/04/17 00:10:08;;;;;;;9.83;4.30;;;11.70;73.60;;;;;;5089826;28;20415;-76
2021/04/17 00:12:35;;;;;;;7.13;3.85;;;11.70;73.10;;;;;;5077247;28;20961;-76
2021/04/17 00:15:03;;;;;;;10.45;3.92;;;11.60;73.10;;;;;;5093301;28;20424;-76
2021/04/17 00:17:30;;;;;;;10.38;3.92;;;11.60;73.30;;;;;;5103073;28;20411;-76
2021/04/17 00:19:56;;;;;;;13.93;4.55;;;11.60;73.40;;;;;;5107953;28;20450;-75
2021/04/17 00:22:24;;;;;;;10.13;4.50;;;11.60;73.50;;;;;;5091696;28;20889;-76
2021/04/17 00:24:50;;;;;;;12.52;4.55;;;11.50;73.70;;;;;;5106940;28;20440;-75
2021/04/17 00:27:16;;;;;;;15.48;5.10;;;11.50;74.00;;;;;;5094320;28;20511;-76
2021/04/17 00:29:44;;;;;;;17.90;5.90;;;11.50;74.00;;;;;;5090052;28;20437;-76
2021/04/17 00:32:10;;;;;;;12.93;5.30;;;11.50;74.30;;;;;;5106509;28;20956;-76
2021/04/17 00:34:37;;;;;;;14.68;5.00;;;11.40;74.30;;;;;;5083658;28;20507;-75
2021/04/17 00:37:04;;;;;;;10.88;4.15;;;11.40;74.60;;;;;;5083411;28;20412;-75
2021/04/17 00:39:30;;;;;;;11.60;4.53;;;11.40;74.70;;;;;;5071605;28;20424;-77
2021/04/17 00:41:57;;;;;;;15.77;5.38;;;11.40;74.90;;;;;;5072281;28;20470;-76
2021/04/17 00:44:23;;;;;;;14.57;4.80;;;11.40;75.00;;;;;;5079263;28;20422;-76
2021/04/17 00:46:51;;;;;;;13.10;4.47;;;11.30;75.10;;;;;;5092666;28;20436;-75
2021/04/17 00:49:17;;;;;;;11.27;4.25;;;11.30;75.20;;;;;;5096063;28;20406;-75
2021/04/17 00:51:44;;;;;;;10.73;4.00;;;11.30;75.50;;;;;;5098985;28;20947;-75
2021/04/17 00:54:10;;;;;;;9.18;4.30;;;11.20;75.50;;;;;;5090353;28;20794;-74
2021/04/17 00:56:37;;;;;;;9.15;3.97;;;11.20;75.80;;;;;;5094111;28;20431;-75
2021/04/17 00:59:04;;;;;;;10.07;3.80;;;11.20;75.80;;;;;;5101686;28;20521;-75
2021/04/17 01:01:31;;;;;;;11.02;3.80;;;11.10;76.00;;;;;;5101335;28;20421;-75
2021/04/17 01:04:05;;;;;;;9.77;3.47;;;11.10;76.30;;;;;;5100717;28;20907;-76
2021/04/17 01:06:38;;;;;;;10.00;3.90;;;11.10;76.60;;;;;;5094460;28;20425;-76
2021/04/17 01:09:10;;;;;;;10.02;3.70;;;11.00;76.70;;;;;;5093630;28;20414;-75
2021/04/17 01:11:42;;;;;;;10.90;3.90;;;11.00;76.80;;;;;;5077652;28;20426;-75
2021/04/17 01:14:10;;;;;;;11.05;3.92;;;11.00;77.00;;;;;;5090253;28;20518;-76
2021/04/17 01:16:37;;;;;;;9.85;3.90;;;11.00;77.10;;;;;;5101316;28;20416;-75
2021/04/17 01:19:09;;;;;;;8.03;4.27;;;11.00;77.20;;;;;;5099442;28;20495;-75
2021/04/17 01:21:38;;;;;;;10.63;4.03;;;10.90;77.50;;;;;;5094730;28;20424;-75
2021/04/17 01:24:12;;;;;;;10.07;3.95;;;10.90;77.70;;;;;;5071261;28;20418;-75
2021/04/17 01:26:40;;;;;;;12.82;4.22;;;10.90;77.70;;;;;;5096031;28;20425;-75
2021/04/17 01:29:07;;;;;;;9.48;3.75;;;10.90;78.00;;;;;;5100886;28;20459;-75
2021/04/17 01:31:35;;;;;;;10.60;3.80;;;10.80;78.00;;;;;;5076801;28;20962;-74
2021/04/17 01:34:03;;;;;;;9.32;4.03;;;10.80;78.10;;;;;;5094558;28;20426;-73
2021/04/17 01:36:32;;;;;;;12.85;4.00;;;10.80;78.20;;;;;;5079629;28;20420;-75
2021/04/17 01:39:04;;;;;;;8.70;3.60;;;10.80;78.40;;;;;;5086885;28;20522;-75
2021/04/17 01:41:34;;;;;;;13.02;4.00;;;10.70;78.40;;;;;;5091640;28;20419;-75
2021/04/17 01:44:04;;;;;;;9.52;3.85;;;10.70;78.50;;;;;;5095645;28;20421;-74
2021/04/17 01:46:35;;;;;;;8.57;3.58;;;10.70;78.70;;;;;;5099409;28;20443;-75
2021/04/17 01:49:05;;;;;;;9.95;3.50;;;10.70;78.90;;;;;;5083574;28;20466;-74
2021/04/17 01:51:32;;;;;;;11.02;3.78;;;10.70;79.10;;;;;;5089086;28;20398;-74
2021/04/17 01:54:03;;;;;;;11.43;3.65;;;10.60;79.10;;;;;;5077742;28;20455;-76
2021/04/17 01:56:31;;;;;;;9.73;3.73;;;10.60;79.40;;;;;;5097193;28;20908;-77
2021/04/17 01:58:59;;;;;;;10.50;4.13;;;10.60;79.60;;;;;;5094111;28;20422;-76
2021/04/17 02:01:26;;;;;;;10.33;3.83;;;10.50;79.70;;;;;;5095260;28;20426;-75
2021/04/17 02:03:53;;;;;;;9.73;3.60;;;10.50;79.80;;;;;;5085851;28;20436;-76
2021/04/17 02:06:19;;;;;;;11.98;3.88;;;10.50;80.00;;;;;;5092372;28;20759;-76
2021/04/17 02:08:46;;;;;;;12.05;3.90;;;10.50;80.20;;;;;;5090152;28;20438;-76
2021/04/17 02:11:12;;;;;;;9.32;3.83;;;10.50;80.40;;;;;;5098875;28;20883;-76
2021/04/17 02:13:40;;;;;;;8.88;3.70;;;10.40;80.80;;;;;;5085038;28;20430;-75
2021/04/17 02:16:13;;;;;;;8.05;3.60;;;10.40;81.70;;;;;;5094298;28;20416;-76
2021/04/17 02:18:49;;;;;;;11.67;3.70;;;10.40;81.20;;;;;;5108559;28;20424;-75
2021/04/17 02:21:19;;;;;;;12.30;4.28;;;10.40;81.60;;;;;;5104375;28;20426;-75
2021/04/17 02:23:47;;;;;;;10.43;3.70;;;10.30;81.30;;;;;;5100159;28;20828;-75
2021/04/17 02:26:14;;;;;;;9.27;3.67;;;10.30;81.90;;;;;;5095247;28;21030;-75
2021/04/17 02:28:41;;;;;;;12.95;3.70;;;10.30;81.80;;;;;;5081828;28;20430;-75
2021/04/17 02:31:08;;;;;;;10.77;3.60;;;10.30;81.90;;;;;;5084138;28;20428;-76
2021/04/17 02:33:34;;;;;;;10.20;4.15;;;10.30;82.00;;;;;;5083984;28;20436;-76
2021/04/17 02:36:02;;;;;;;9.85;3.90;;;10.20;82.10;;;;;;5088620;28;20465;-75
2021/04/17 02:38:28;;;;;;;11.07;3.70;;;10.20;82.50;;;;;;5088808;28;20429;-76
2021/04/17 02:40:54;;;;;;;10.35;3.60;;;10.20;82.70;;;;;;5079896;28;20868;-75
2021/04/17 02:43:21;;;;;;;11.05;3.80;;;10.20;82.80;;;;;;5073485;28;20428;-75
2021/04/17 02:45:47;;;;;;;11.55;3.70;;;10.10;83.10;;;;;;5097301;28;20429;-75
2021/04/17 02:48:14;;;;;;;10.75;3.88;;;10.10;83.20;;;;;;5103547;28;20403;-76
2021/04/17 02:50:40;;;;;;;9.73;3.80;;;10.10;83.60;;;;;;5084873;28;20417;-76
2021/04/17 02:53:08;;;;;;;9.80;3.83;;;10.10;83.80;;;;;;5099713;28;20448;-76
2021/04/17 02:55:34;;;;;;;12.48;3.70;;;10.10;83.80;;;;;;5092435;28;20857;-76
2021/04/17 02:58:01;;;;;;;13.07;3.75;;;10.10;83.90;;;;;;5108832;28;20900;-76
2021/04/17 03:00:27;;;;;;;11.10;3.83;;;10.00;84.10;;;;;;5069507;28;20467;-75
2021/04/17 03:02:54;;;;;;;12.60;4.00;;;10.00;84.20;;;;;;5069612;28;20454;-76
2021/04/17 03:05:20;;;;;;;8.32;3.92;;;10.00;84.30;;;;;;5094510;28;20485;-76
2021/04/17 03:07:47;;;;;;;8.40;3.90;;;10.00;84.20;;;;;;5079839;28;20877;-76
2021/04/17 03:10:15;;;;;;;9.52;3.85;;;10.00;84.40;;;;;;5102972;28;20424;-76
2021/04/17 03:12:42;;;;;;;10.95;4.03;;;9.90;84.40;;;;;;5077374;28;20909;-77
2021/04/17 03:15:09;;;;;;;12.10;4.28;;;9.90;84.60;;;;;;5098271;28;20430;-76
2021/04/17 03:17:36;;;;;;;11.73;4.57;;;10.00;84.80;;;;;;5078983;28;20526;-76
2021/04/17 03:20:05;;;;;;;11.18;4.45;;;9.90;84.60;;;;;;5092335;28;20414;-76
2021/04/17 03:22:32;;;;;;;10.77;4.20;;;9.90;84.70;;;;;;5070585;28;20425;-75
2021/04/17 03:24:58;;;;;;;10.20;4.43;;;9.90;84.90;;;;;;5083332;28;20433;-75
2021/04/17 03:27:25;;;;;;;10.05;4.30;;;9.90;85.10;;;;;;5092853;28;20460;-75
2021/04/17 03:29:52;;;;;;;11.95;4.63;;;9.90;84.90;;;;;;5097074;28;20397;-75
2021/04/17 03:32:18;;;;;;;14.37;4.70;;;9.90;85.10;;;;;;5086978;28;20421;-75
2021/04/17 03:34:45;;;;;;;10.77;4.80;;;9.80;85.20;;;;;;5070934;28;20430;-76
2021/04/17 03:37:11;;;;;;;11.90;4.80;;;9.80;85.50;;;;;;5083827;28;20950;-76
2021/04/17 03:39:38;;;;;;;10.85;5.18;;;9.80;85.30;;;;;;5099300;28;20785;-75
2021/04/17 03:42:05;;;;;;;12.23;5.47;;;9.80;85.40;;;;;;5079678;28;20535;-75
2021/04/17 03:44:32;;;;;;;15.93;5.97;;;9.70;85.50;;;;;;5100034;28;20435;-76
2021/04/17 03:46:58;;;;;;;17.58;6.65;;;9.70;85.50;;;;;;5097796;28;20414;-75
2021/04/17 03:49:25;;;;;;;15.05;6.43;;;9.70;85.80;;;;;;5082426;28;20412;-76
2021/04/17 03:51:54;;;;;;;17.65;6.57;;;9.70;85.90;;;;;;5088049;28;20598;-76
2021/04/17 03:54:20;;;;;;;20.17;7.63;;;9.70;86.00;;;;;;5091966;28;20421;-76
2021/04/17 03:56:47;;;;;;;21.88;7.50;;;9.70;86.20;;;;;;5076166;28;20421;-76
2021/04/17 03:59:13;;;;;;;16.95;6.70;;;9.60;86.30;;;;;;5079186;28;20477;-75
2021/04/17 04:01:40;;;;;;;14.43;6.18;;;9.60;86.50;;;;;;5096397;28;20506;-75
2021/04/17 04:04:07;;;;;;;15.15;5.60;;;9.60;86.80;;;;;;5090013;28;20513;-76
2021/04/17 04:06:33;;;;;;;14.50;5.80;;;9.60;86.70;;;;;;5096287;28;20425;-76
2021/04/17 04:09:00;;;;;;;13.65;5.78;;;9.60;86.80;;;;;;5093822;28;20508;-76
2021/04/17 04:11:26;;;;;;;13.10;5.80;;;9.50;86.90;;;;;;5100795;28;20461;-76
2021/04/17 04:13:52;;;;;;;16.42;6.32;;;9.60;87.20;;;;;;5087863;28;20433;-76
2021/04/17 04:16:19;;;;;;;11.75;5.93;;;9.50;87.30;;;;;;5107294;28;20412;-76
2021/04/17 04:18:46;;;;;;;20.23;7.00;;;9.50;87.20;;;;;;5108596;28;20440;-76
2021/04/17 04:21:12;;;;;;;17.02;6.40;;;9.50;87.40;;;;;;5103200;28;20420;-75
2021/04/17 04:23:39;;;;;;;10.15;5.45;;;9.50;87.70;;;;;;5092231;28;20908;-76
2021/04/17 04:26:05;;;;;;;12.80;6.35;;;9.50;87.80;;;;;;5097584;28;20419;-74
2021/04/17 04:28:32;;;;;;;16.47;6.47;;;9.40;87.80;;;;;;5085895;28;20478;-76
2021/04/17 04:30:58;;;;;;;13.63;6.07;;;9.40;88.00;;;;;;5095064;28;20766;-75
2021/04/17 04:33:25;;;;;;;15.18;6.68;;;9.40;88.90;;;;;;5098887;28;20435;-75
2021/04/17 04:35:52;;;;;;;13.80;6.40;;;9.40;88.10;;;;;;5098926;28;20435;-75
2021/04/17 04:38:18;;;;;;;18.33;6.65;;;9.40;88.20;;;;;;5099160;28;21220;-75
2021/04/17 04:40:45;;;;;;;14.23;6.67;;;9.30;88.30;;;;;;5096393;28;20434;-76
2021/04/17 04:43:11;;;;;;;15.05;7.20;;;9.30;88.70;;;;;;5100281;28;20410;-76
2021/04/17 04:45:38;;;;;;;16.98;6.93;;;9.30;88.90;;;;;;5098416;28;20422;-75
2021/04/17 04:48:08;;;;;;;16.95;7.65;;;9.30;89.20;;;;;;5074530;28;20406;-75
2021/04/17 04:50:35;;;;;;;15.95;7.43;;;9.30;89.60;;;;;;5092121;28;20526;-75
2021/04/17 04:53:02;;;;;;;13.75;7.20;;;9.30;89.70;;;;;;5098610;28;20429;-75
2021/04/17 04:55:28;;;;;;;15.80;7.20;;;9.20;89.90;;;;;;5089015;28;20469;-75
2021/04/17 04:57:55;;;;;;;17.65;7.68;;;9.20;90.00;;;;;;5087500;28;20414;-75
2021/04/17 05:00:23;;;;;;;18.05;7.40;;;9.20;90.10;;;;;;5092382;28;20425;-75
2021/04/17 05:02:49;;;;;;;15.20;7.63;;;9.20;90.30;;;;;;5080377;28;20426;-74
2021/04/17 05:05:17;;;;;;;15.27;7.40;;;9.20;90.50;;;;;;5088426;28;20786;-76
2021/04/17 05:07:43;;;;;;;19.67;7.13;;;9.20;90.60;;;;;;5084431;28;20444;-77
2021/04/17 05:10:12;;;;;;;17.02;7.18;;;9.20;90.90;;;;;;5103355;28;20515;-75
2021/04/17 05:12:38;;;;;;;14.35;6.82;;;9.20;90.90;;;;;;5083865;28;20512;-76
2021/04/17 05:15:06;;;;;;;16.40;7.50;;;9.20;90.90;;;;;;5101484;28;20426;-76
2021/04/17 05:17:32;;;;;;;15.80;7.18;;;9.20;91.10;;;;;;5090968;28;20902;-75
2021/04/17 05:19:59;;;;;;;18.55;7.30;;;9.20;91.30;;;;;;5100712;28;20452;-76
2021/04/17 05:22:25;;;;;;;14.15;7.03;;;9.20;91.40;;;;;;5098109;28;20404;-76
2021/04/17 05:24:52;;;;;;;17.42;7.85;;;9.20;91.60;;;;;;5076968;28;20851;-76
2021/04/17 05:27:20;;;;;;;17.33;7.45;;;9.20;91.60;;;;;;5077834;28;20470;-77
2021/04/17 05:29:46;;;;;;;17.98;7.10;;;9.20;91.70;;;;;;5102103;28;20423;-75
2021/04/17 05:32:13;;;;;;;16.77;7.63;;;9.20;91.80;;;;;;5099847;28;20454;-77
2021/04/17 05:34:39;;;;;;;14.98;6.65;;;9.20;91.70;;;;;;5104493;28;20460;-76
2021/04/17 05:37:06;;;;;;;15.02;7.05;;;9.20;91.90;;;;;;5078863;28;20424;-75
2021/04/17 05:39:32;;;;;;;16.30;6.35;;;9.20;91.90;;;;;;5099654;28;20488;-76
2021/04/17 05:41:58;;;;;;;15.02;6.47;;;9.30;92.00;;;;;;5106786;28;20408;-76
2021/04/17 05:44:29;;;;;;;15.57;6.22;;;9.30;92.10;;;;;;5097699;28;20420;-77
2021/04/17 05:46:55;;;;;;;13.93;6.32;;;9.30;92.10;;;;;;5094961;28;20432;-77
2021/04/17 05:49:21;;;;;;;13.70;6.00;;;9.30;92.10;;;;;;5095103;28;20425;-74
2021/04/17 05:51:48;;;;;;;15.10;6.18;;;9.30;92.00;;;;;;5098809;28;20572;-75
2021/04/17 05:54:14;;;;;;;10.60;5.70;;;9.40;92.20;;;;;;5106024;28;20412;-76
2021/04/17 05:56:41;;;;;;;12.05;5.40;;;9.40;92.20;;;;;;5097761;28;20416;-75
2021/04/17 05:59:07;;;;;;;14.95;5.03;;;9.40;92.30;;;;;;5102179;28;20455;-76
2021/04/17 06:01:35;;;;;;;13.03;4.87;;;9.40;92.30;;;;;;5080550;28;20418;-75
2021/04/17 06:04:01;;;;;;;14.27;5.03;;;9.40;92.40;;;;;;5101221;28;20415;-75
2021/04/17 06:06:28;;;;;;;14.82;4.95;;;9.50;92.40;;;;;;5085919;28;20470;-76
2021/04/17 06:08:54;;;;;;;11.57;4.40;;;9.50;92.40;;;;;;5095977;28;20728;-76
2021/04/17 06:11:21;;;;;;;12.43;4.80;;;9.50;92.50;;;;;;5079368;28;20490;-76
2021/04/17 06:13:48;;;;;;;15.15;4.30;;;9.50;92.50;;;;;;5080524;28;20404;-75
2021/04/17 06:16:14;;;;;;;9.18;4.30;;;9.50;92.40;;;;;;5089333;28;20898;-76
2021/04/17 06:18:41;;;;;;;14.45;4.60;;;9.50;92.40;;;;;;5102609;28;20473;-76
2021/04/17 06:21:08;;;;;;;11.65;4.32;;;9.50;92.50;;;;;;5091258;28;20413;-76
2021/04/17 06:23:35;;;;;;;9.68;4.15;;;9.60;92.40;;;;;;5096204;28;20928;-75
2021/04/17 06:26:02;;;;;;;12.07;3.90;;;9.60;92.40;;;;;;5071518;28;20406;-76
2021/04/17 06:28:30;;;;;;;11.90;3.65;;;9.60;92.40;;;;;;5073978;28;20892;-74
2021/04/17 06:30:57;;;;;;;11.70;3.80;;;9.70;92.30;;;;;;5077626;28;20421;-76
2021/04/17 06:33:23;;;;;;;10.82;3.80;;;9.70;92.20;;;;;;5103951;28;20826;-77
2021/04/17 06:35:51;;;;;;;12.70;5.35;;;9.70;92.30;;;;;;5096403;28;21245;-75
2021/04/17 06:38:17;;;;;;;13.10;3.60;;;9.70;92.20;;;;;;5094931;28;20798;-75
2021/04/17 06:40:45;;;;;;;11.75;3.85;;;9.80;92.20;;;;;;5097160;28;20417;-75
2021/04/17 06:43:12;;;;;;;10.65;3.30;;;9.80;92.20;;;;;;5079040;28;20507;-78
2021/04/17 06:45:39;;;;;;;12.43;3.50;;;9.80;92.20;;;;;;5080857;28;20454;-75
2021/04/17 06:48:08;;;;;;;14.75;3.83;;;9.80;92.00;;;;;;5100193;28;21567;-75
2021/04/17 06:50:35;;;;;;;11.05;3.00;;;9.80;92.00;;;;;;5102031;28;20440;-74
2021/04/17 06:53:04;;;;;;;9.80;3.10;;;9.80;91.50;;;;;;5100194;28;20416;-74
2021/04/17 06:55:31;;;;;;;15.57;3.58;;;9.80;91.10;;;;;;5098244;28;20424;-73
2021/04/17 06:57:57;;;;;;;9.63;3.10;;;9.90;91.10;;;;;;5081899;28;20506;-74
2021/04/17 07:00:25;;;;;;;8.85;2.75;;;9.90;91.30;;;;;;5096930;28;20416;-75
2021/04/17 07:02:52;;;;;;;10.27;2.58;;;9.90;90.60;;;;;;5079549;28;20431;-73
2021/04/17 07:05:19;;;;;;;10.18;2.80;;;9.90;90.00;;;;;;5094621;28;20455;-73
2021/04/17 07:07:45;;;;;;;12.20;2.90;;;9.90;90.00;;;;;;5093676;28;20405;-75
2021/04/17 07:10:14;;;;;;;9.73;2.85;;;9.90;90.00;;;;;;5100673;28;20491;-74
2021/04/17 07:12:43;;;;;;;8.18;2.65;;;10.00;90.00;;;;;;5100795;28;20412;-74
2021/04/17 07:15:11;;;;;;;7.68;2.97;;;10.00;90.20;;;;;;5095124;28;20438;-74
2021/04/17 07:17:37;;;;;;;9.27;2.88;;;10.00;89.70;;;;;;5096245;28;20456;-74
2021/04/17 07:20:05;;;;;;;14.63;5.60;;;10.00;88.80;;;;;;5100838;28;20425;-75
2021/04/17 07:22:34;;;;;;;11.05;3.00;;;10.00;88.90;;;;;;5102546;28;20406;-76
2021/04/17 07:25:16;;;;;;;8.18;2.70;;;10.00;89.10;;;;;;5091322;28;20411;-74
2021/04/17 07:27:44;;;;;;;8.35;2.58;;;10.10;88.50;;;;;;5073383;28;20421;-75
2021/04/17 07:30:29;;;;;;;8.90;2.25;;;10.10;88.40;;;;;;5088805;28;20412;-75
2021/04/17 07:33:09;;;;;;;10.17;2.60;;;10.10;86.70;;;;;;5078013;28;20519;-74
2021/04/17 07:35:38;;;;;;;6.35;2.60;;;10.20;87.00;;;;;;5096381;28;20422;-74
2021/04/17 07:38:10;;;;;;;7.40;2.55;;;10.20;86.80;;;;;;5076379;28;20409;-75
2021/04/17 07:40:38;;;;;;;9.32;2.90;;;10.30;86.30;;;;;;5102649;28;20429;-75
2021/04/17 07:43:05;;;;;;;9.48;2.70;;;10.20;85.20;;;;;;5088229;28;20465;-74
2021/04/17 07:45:33;;;;;;;9.20;2.70;;;10.30;85.10;;;;;;5093251;28;20421;-75
2021/04/17 07:48:01;;;;;;;6.93;2.30;;;10.40;84.60;;;;;;5101995;28;20431;-74
2021/04/17 07:50:32;;;;;;;7.97;2.63;;;10.40;82.90;;;;;;5107496;28;20493;-74
2021/04/17 07:52:59;;;;;;;7.53;2.58;;;10.40;81.30;;;;;;5101499;28;20402;-75
2021/04/17 07:55:30;;;;;;;4.83;2.00;;;10.50;81.00;;;;;;5086761;28;20424;-75
2021/04/17 07:57:59;;;;;;;5.63;2.00;;;10.50;79.40;;;;;;5100282;28;20509;-73
2021/04/17 08:00:27;;;;;;;8.27;2.42;;;10.60;78.00;;;;;;5098297;28;20438;-74
2021/04/17 08:02:55;;;;;;;9.35;2.38;;;10.60;77.60;;;;;;5101031;28;20859;-74
2021/04/17 08:05:23;;;;;;;7.85;2.60;;;10.70;77.80;;;;;;5090848;28;20425;-74
2021/04/17 08:07:51;;;;;;;6.90;2.15;;;10.70;76.80;;;;;;5087187;28;20578;-73
2021/04/17 08:10:18;;;;;;;6.70;2.30;;;10.80;75.90;;;;;;5097786;28;20406;-74
2021/04/17 08:12:46;;;;;;;8.37;2.27;;;10.80;75.70;;;;;;5105207;28;20756;-74
2021/04/17 08:15:16;;;;;;;10.20;2.53;;;10.90;73.90;;;;;;5107091;28;20489;-75
2021/04/17 08:17:43;;;;;;;13.23;6.67;;;10.90;72.70;;;;;;5084935;28;20432;-75
2021/04/17 08:20:12;;;;;;;7.50;2.67;;;11.00;72.50;;;;;;5085697;28;20414;-73
2021/04/17 08:22:41;;;;;;;8.70;2.53;;;11.00;72.20;;;;;;5104081;28;20412;-74
2021/04/17 08:25:09;;;;;;;6.15;2.38;;;11.10;73.00;;;;;;5081843;28;20412;-74
2021/04/17 08:27:36;;;;;;;7.20;2.20;;;11.10;71.30;;;;;;5077334;28;20762;-74
2021/04/17 08:30:07;;;;;;;5.88;2.30;;;11.10;69.40;;;;;;5105041;28;20761;-75
2021/04/17 08:32:36;;;;;;;8.13;2.45;;;11.20;69.80;;;;;;5089836;28;20416;-74
2021/04/17 08:35:08;;;;;;;8.13;2.75;;;11.30;70.60;;;;;;5108537;28;20431;-74
2021/04/17 08:38:03;;;;;;;6.93;2.72;;;11.40;68.90;;;;;;5101690;28;20427;-74
2021/04/17 08:40:53;;;;;;;7.80;2.70;;;11.40;69.00;;;;;;5074750;28;20424;-75
2021/04/17 08:43:28;;;;;;;6.35;2.70;;;11.50;70.40;;;;;;5077949;28;20413;-76
2021/04/17 08:46:07;;;;;;;6.85;2.70;;;11.50;70.30;;;;;;5099274;28;20414;-75
2021/04/17 08:48:47;;;;;;;4.63;2.40;;;11.60;70.50;;;;;;5092282;28;20398;-75
2021/04/17 08:51:35;;;;;;;6.88;2.65;;;11.60;69.40;;;;;;5081130;28;20416;-75
2021/04/17 08:54:14;;;;;;;8.73;3.08;;;11.60;68.10;;;;;;5092836;28;20414;-75
2021/04/17 08:57:00;;;;;;;5.38;2.78;;;11.70;68.60;;;;;;5102948;28;20405;-75
2021/04/17 08:59:32;;;;;;;7.45;2.70;;;11.80;69.30;;;;;;5071079;28;20426;-74
2021/04/17 09:02:03;;;;;;;7.77;2.70;;;11.80;68.40;;;;;;5105136;28;20506;-75
2021/04/17 09:04:31;;;;;;;7.32;2.40;;;11.90;67.10;;;;;;5097952;28;20415;-74
2021/04/17 09:06:58;;;;;;;7.20;2.58;;;12.00;67.90;;;;;;5094329;28;20417;-74
2021/04/17 09:09:34;;;;;;;5.60;2.40;;;12.10;68.00;;;;;;5097263;28;20404;-75
2021/04/17 09:12:28;;;;;;;8.93;2.88;;;12.10;65.60;;;;;;5096708;28;20456;-75
2021/04/17 09:15:02;;;;;;;8.30;2.65;;;12.30;65.70;;;;;;5051120;28;20462;-74
2021/04/17 09:17:49;;;;;;;8.02;2.47;;;12.30;66.50;;;;;;5099873;28;20414;-75
2021/04/17 09:20:37;;;;;;;9.52;2.92;;;12.40;66.90;;;;;;5085287;28;20815;-74
2021/04/17 09:23:03;;;;;;;7.00;2.50;;;12.50;64.00;;;;;;5099103;28;20423;-74
2021/04/17 09:25:40;;;;;;;8.27;2.65;;;12.50;64.00;;;;;;5100280;28;20460;-74
2021/04/17 09:28:06;;;;;;;9.05;2.42;;;12.60;64.40;;;;;;5107173;28;20454;-73
2021/04/17 09:30:33;;;;;;;6.20;2.20;;;12.60;63.50;;;;;;5078396;28;20413;-74
2021/04/17 09:33:00;;;;;;;5.95;2.30;;;12.70;62.90;;;;;;5087814;28;20402;-73
2021/04/17 09:35:29;;;;;;;5.05;2.10;;;12.80;60.30;;;;;;5089616;28;20882;-75
2021/04/17 09:38:06;;;;;;;6.25;2.08;;;12.80;58.80;;;;;;5092842;28;20416;-73
2021/04/17 09:40:34;;;;;;;4.85;2.00;;;12.90;58.00;;;;;;5110729;28;20419;-74
2021/04/17 09:43:02;;;;;;;6.03;2.17;;;13.00;58.50;;;;;;5085994;28;20796;-74
2021/04/17 09:45:32;;;;;;;5.65;1.83;;;13.00;56.90;;;;;;5094157;28;20421;-74
2021/04/17 09:48:00;;;;;;;6.95;1.83;;;13.10;58.60;;;;;;5105045;28;20420;-75
2021/04/17 09:50:28;;;;;;;7.53;2.10;;;13.20;55.00;;;;;;5087511;28;20770;-75
2021/04/17 09:52:55;;;;;;;5.18;2.05;;;13.20;53.20;;;;;;5091628;28;20905;-74
2021/04/17 09:55:22;;;;;;;5.88;2.40;;;13.30;51.60;;;;;;5103772;28;20435;-74
2021/04/17 09:57:49;;;;;;;6.00;2.33;;;13.30;49.90;;;;;;5090135;28;20417;-73
2021/04/17 10:00:24;;;;;;;6.90;2.38;;;13.30;52.00;;;;;;5093580;28;20420;-73
2021/04/17 10:02:51;;;;;;;6.17;2.30;;;13.30;53.20;;;;;;5109647;28;20419;-72
2021/04/17 10:05:33;;;;;;;7.20;2.40;;;13.40;53.10;;;;;;5080301;28;20524;-73
2021/04/17 10:07:59;;;;;;;6.80;2.40;;;13.40;52.80;;;;;;5094472;28;20498;-74
2021/04/17 10:10:35;;;;;;;6.35;2.30;;;13.40;51.90;;;;;;5074059;28;20425;-73
2021/04/17 10:13:01;;;;;;;6.13;2.35;;;13.40;52.10;;;;;;5091603;28;20899;-73
2021/04/17 10:15:31;;;;;;;7.00;2.20;;;13.40;52.40;;;;;;5083245;28;20466;-74
2021/04/17 10:17:59;;;;;;;5.65;2.40;;;13.40;52.00;;;;;;5106989;28;20504;-74
2021/04/17 10:20:27;;;;;;;7.38;2.30;;;13.40;51.10;;;;;;5081786;28;20510;-73
2021/04/17 10:22:54;;;;;;;7.97;2.23;;;13.40;51.10;;;;;;5095781;28;21318;-74
2021/04/17 10:25:36;;;;;;;6.97;2.10;;;13.50;51.20;;;;;;5081122;28;20426;-73
2021/04/17 10:28:15;;;;;;;6.68;2.17;;;13.60;50.80;;;;;;5108613;28;20410;-73
2021/04/17 10:30:46;;;;;;;7.28;2.40;;;13.70;50.80;;;;;;5087299;28;20945;-72
2021/04/17 10:33:18;;;;;;;6.47;2.50;;;13.80;49.90;;;;;;5100662;28;20897;-73
2021/04/17 10:35:45;;;;;;;4.80;1.90;;;13.80;49.60;;;;;;5097897;28;20478;-73
2021/04/17 10:38:23;;;;;;;6.43;2.47;;;13.90;49.80;;;;;;5109010;28;20408;-73
2021/04/17 10:40:49;;;;;;;4.93;2.30;;;14.00;49.10;;;;;;5094847;28;20808;-72
2021/04/17 10:43:17;;;;;;;4.97;1.80;;;14.10;48.60;;;;;;5105982;28;20536;-73
2021/04/17 10:45:45;;;;;;;3.65;1.90;;;14.20;48.70;;;;;;5100234;28;20406;-73
2021/04/17 10:48:14;;;;;;;6.17;2.30;;;14.40;48.20;;;;;;5089040;28;20496;-73
2021/04/17 10:50:43;;;;;;;5.78;2.13;;;14.50;48.00;;;;;;5077725;28;20421;-72
2021/04/17 10:53:12;;;;;;;6.15;2.63;;;14.60;47.40;;;;;;5088288;28;20572;-73
2021/04/17 10:55:42;;;;;;;6.38;2.10;;;14.70;46.80;;;;;;5088821;28;20478;-73
2021/04/17 10:58:24;;;;;;;6.75;2.45;;;14.80;46.40;;;;;;5092596;28;20409;-73
2021/04/17 11:00:55;;;;;;;6.60;2.20;;;14.90;45.60;;;;;;5107443;28;20420;-74
2021/04/17 11:03:22;;;;;;;5.22;2.40;;;15.00;44.70;;;;;;5109196;28;20469;-73
2021/04/17 11:05:48;;;;;;;4.35;1.80;;;15.00;44.60;;;;;;5073887;28;20456;-74
2021/04/17 11:08:22;;;;;;;5.32;2.22;;;15.20;44.50;;;;;;5094070;28;20481;-74
2021/04/17 11:10:48;;;;;;;8.77;2.25;;;15.20;43.70;;;;;;5087382;28;20838;-73
2021/04/17 11:13:29;;;;;;;4.88;2.03;;;15.30;43.90;;;;;;5094845;28;20444;-74
2021/04/17 11:15:56;;;;;;;6.35;2.00;;;15.40;44.00;;;;;;5073448;28;20420;-73
2021/04/17 11:18:23;;;;;;;5.33;2.10;;;15.40;43.20;;;;;;5097977;28;20464;-73
2021/04/17 11:20:55;;;;;;;5.15;1.88;;;15.40;43.70;;;;;;5113326;28;20785;-73
2021/04/17 11:23:37;;;;;;;4.97;1.90;;;15.50;44.20;;;;;;5103848;28;20835;-74
2021/04/17 11:26:04;;;;;;;7.13;2.37;;;15.60;43.60;;;;;;5085458;28;20426;-73
2021/04/17 11:28:31;;;;;;;5.00;1.80;;;15.70;43.50;;;;;;5109304;28;20772;-73
2021/04/17 11:30:59;;;;;;;4.13;2.25;;;15.70;43.70;;;;;;5087747;28;20424;-73
2021/04/17 11:33:26;;;;;;;4.63;2.10;;;15.80;43.50;;;;;;5101640;28;20435;-74
2021/04/17 11:35:53;;;;;;;6.68;2.38;;;15.80;43.60;;;;;;5086514;28;20425;-73
2021/04/17 11:38:21;;;;;;;7.20;2.17;;;15.90;43.40;;;;;;5096322;28;20424;-74
2021/04/17 11:40:47;;;;;;;5.70;2.00;;;15.90;43.60;;;;;;5084779;28;20433;-73
2021/04/17 11:43:14;;;;;;;6.72;2.33;;;16.00;43.90;;;;;;5105717;28;20491;-73
2021/04/17 11:45:40;;;;;;;7.60;2.60;;;16.20;43.70;;;;;;5096255;28;20504;-73
2021/04/17 11:48:08;;;;;;;7.15;2.22;;;16.30;43.00;;;;;;5093596;28;20414;-77
2021/04/17 11:50:35;;;;;;;8.82;2.15;;;16.30;43.10;;;;;;5087655;28;20504;-74
2021/04/17 11:53:02;;;;;;;6.20;2.03;;;16.40;42.60;;;;;;5090583;28;20468;-73
2021/04/17 11:55:28;;;;;;;4.78;2.00;;;16.50;42.30;;;;;;5082248;28;20430;-73
2021/04/17 11:57:55;;;;;;;5.88;2.25;;;16.70;42.50;;;;;;5092343;28;20488;-77
2021/04/17 12:00:22;;;;;;;4.20;1.95;;;16.90;42.40;;;;;;5084281;28;20487;-72
2021/04/17 12:02:48;;;;;;;4.45;1.90;;;17.00;41.20;;;;;;5112930;28;20414;-73
2021/04/17 12:05:16;;;;;;;5.07;2.10;;;17.10;41.10;;;;;;5092816;28;20420;-73
2021/04/17 12:07:42;;;;;;;4.70;2.00;;;17.20;41.40;;;;;;5094149;28;20428;-73
2021/04/17 12:10:09;;;;;;;4.78;1.83;;;17.40;40.90;;;;;;5092627;28;20890;-74
2021/04/17 12:12:36;;;;;;;4.30;2.20;;;17.60;40.60;;;;;;5100474;28;21099;-73
2021/04/17 12:15:03;;;;;;;5.50;2.10;;;17.70;40.00;;;;;;5105856;28;20922;-73
2021/04/17 12:17:30;;;;;;;3.92;2.00;;;17.90;39.40;;;;;;5082741;28;20831;-75
2021/04/17 12:19:58;;;;;;;5.28;1.90;;;18.10;39.10;;;;;;5077463;28;20779;-74
2021/04/17 12:22:26;;;;;;;4.22;2.10;;;18.20;39.00;;;;;;5102352;28;20409;-73
2021/04/17 12:24:53;;;;;;;6.07;2.15;;;18.40;37.60;;;;;;5091657;28;20409;-72
2021/04/17 12:27:20;;;;;;;3.85;1.90;;;18.50;37.80;;;;;;5090042;28;20422;-75
2021/04/17 12:29:46;;;;;;;6.30;1.75;;;18.60;37.70;;;;;;5094224;28;20433;-74
2021/04/17 12:32:13;;;;;;;4.93;1.90;;;18.80;37.10;;;;;;5084048;28;20437;-74
2021/04/17 12:34:39;;;;;;;4.37;1.80;;;18.90;36.70;;;;;;5072705;28;20417;-73
2021/04/17 12:37:06;;;;;;;4.60;1.95;;;19.00;35.30;;;;;;5091279;28;20928;-73
2021/04/17 12:39:33;;;;;;;5.15;2.20;;;19.10;35.70;;;;;;5092464;28;20433;-73
2021/04/17 12:42:00;;;;;;;4.15;1.80;;;19.20;35.10;;;;;;5091151;28;20416;-74
2021/04/17 12:44:26;;;;;;;6.78;1.98;;;19.20;35.30;;;;;;5095983;28;20546;-74
2021/04/17 12:46:52;;;;;;;4.50;1.70;;;19.30;35.50;;;;;;5078297;28;20425;-76
2021/04/17 12:49:19;;;;;;;4.22;1.92;;;19.50;35.60;;;;;;5091164;28;20410;-75
2021/04/17 12:51:45;;;;;;;5.47;1.98;;;19.70;35.20;;;;;;5095550;28;20418;-76